createdAt,value
2019-05-26T00:00:45.288Z,7.43
2019-05-26T00:03:14.206Z,7.60
2019-05-26T00:05:43.128Z,6.23
2019-05-26T00:08:12.043Z,6.70
2019-05-26T00:10:41.126Z,5.87
2019-05-26T00:13:10.030Z,6.72
2019-05-26T00:15:39.527Z,8.43
2019-05-26T00:18:08.430Z,8.20
2019-05-26T00:20:37.350Z,6.97
2019-05-26T00:23:07.122Z,6.33
2019-05-26T00:25:35.957Z,5.90
2019-05-26T00:28:05.470Z,7.83
2019-05-26T00:30:34.458Z,5.78
2019-05-26T00:33:03.387Z,5.23
2019-05-26T00:35:32.586Z,8.13
2019-05-26T00:38:01.507Z,6.60
2019-05-26T00:40:30.506Z,6.00
2019-05-26T00:42:59.494Z,7.70
2019-05-26T00:45:28.490Z,8.08
2019-05-26T00:47:57.470Z,6.63
2019-05-26T00:50:26.626Z,6.47
2019-05-26T00:52:56.876Z,6.60
2019-05-26T00:55:26.109Z,5.77
2019-05-26T00:57:55.341Z,5.63
2019-05-26T01:00:38.445Z,6.40
2019-05-26T01:03:07.768Z,7.07
2019-05-26T01:05:36.857Z,5.77
2019-05-26T01:08:07.074Z,7.07
2019-05-26T01:10:36.695Z,8.37
2019-05-26T01:13:06.626Z,6.73
2019-05-26T01:15:35.638Z,6.80
2019-05-26T01:18:05.575Z,7.10
2019-05-26T01:20:34.820Z,6.17
2019-05-26T01:23:04.211Z,7.50
2019-05-26T01:25:33.194Z,7.37
2019-05-26T01:28:02.051Z,7.27
2019-05-26T01:30:35.988Z,6.33
2019-05-26T01:33:05.903Z,6.93
2019-05-26T01:35:36.716Z,7.20
2019-05-26T01:38:20.605Z,8.93
2019-05-26T01:40:39.117Z,7.23
2019-05-26T01:43:08.317Z,9.70
2019-05-26T01:45:37.412Z,7.47
2019-05-26T01:48:07.542Z,6.30
2019-05-26T01:50:36.866Z,7.10
2019-05-26T01:53:07.337Z,6.60
2019-05-26T01:55:36.419Z,7.50
2019-05-26T01:58:05.699Z,8.77
2019-05-26T02:00:34.807Z,6.10
2019-05-26T02:03:04.087Z,7.33
2019-05-26T02:05:33.108Z,6.10
2019-05-26T02:08:02.092Z,9.13
2019-05-26T02:10:31.069Z,6.70
2019-05-26T02:13:00.092Z,7.90
2019-05-26T02:15:29.131Z,9.33
2019-05-26T02:17:58.129Z,8.53
2019-05-26T02:20:27.103Z,9.23
2019-05-26T02:22:56.343Z,9.17
2019-05-26T02:25:25.538Z,7.20
2019-05-26T02:27:54.794Z,9.27
2019-05-26T02:30:24.064Z,7.23
2019-05-26T02:32:53.009Z,8.17
2019-05-26T02:35:23.476Z,8.97
2019-05-26T02:37:52.783Z,7.53
2019-05-26T02:40:22.363Z,7.07
2019-05-26T02:42:51.360Z,7.23
2019-05-26T02:45:21.848Z,9.27
2019-05-26T02:47:50.760Z,8.77
2019-05-26T02:50:20.151Z,8.50
2019-05-26T02:52:49.166Z,7.07
2019-05-26T02:55:18.555Z,6.33
2019-05-26T02:57:47.805Z,6.53
2019-05-26T03:00:25.359Z,7.63
2019-05-26T03:02:54.344Z,6.20
2019-05-26T03:05:23.246Z,7.23
2019-05-26T03:07:52.338Z,7.23
2019-05-26T03:10:21.371Z,7.63
2019-05-26T03:12:52.635Z,6.80
2019-05-26T03:15:22.074Z,6.83
2019-05-26T03:17:52.771Z,7.07
2019-05-26T03:20:21.983Z,6.13
2019-05-26T03:22:52.450Z,6.13
2019-05-26T03:25:21.359Z,6.97
2019-05-26T03:27:50.287Z,5.97
2019-05-26T03:30:19.195Z,5.93
2019-05-26T03:32:48.195Z,7.07
2019-05-26T03:35:17.193Z,6.50
2019-05-26T03:37:46.101Z,6.37
2019-05-26T03:40:15.347Z,6.43
2019-05-26T03:42:44.219Z,6.40
2019-05-26T03:45:22.763Z,6.20
2019-05-26T03:47:52.037Z,6.90
2019-05-26T03:50:21.497Z,6.13
2019-05-26T03:52:50.680Z,6.67
2019-05-26T03:55:19.586Z,7.10
2019-05-26T03:57:48.754Z,8.60
2019-05-26T04:00:17.971Z,6.57
2019-05-26T04:02:46.886Z,7.63
2019-05-26T04:05:15.798Z,7.03
2019-05-26T04:07:44.650Z,8.75
2019-05-26T04:10:13.727Z,9.27
2019-05-26T04:12:42.711Z,6.00
2019-05-26T04:15:11.794Z,6.00
2019-05-26T04:17:40.813Z,6.93
2019-05-26T04:20:10.095Z,9.17
2019-05-26T04:22:38.942Z,11.70
2019-05-26T04:25:08.252Z,7.60
2019-05-26T04:27:37.168Z,8.60
2019-05-26T04:30:06.456Z,9.77
2019-05-26T04:32:35.696Z,9.37
2019-05-26T04:35:05.704Z,11.97
2019-05-26T04:37:34.588Z,11.60
2019-05-26T04:40:22.470Z,9.60
2019-05-26T04:42:34.388Z,11.57
2019-05-26T04:45:03.464Z,10.53
2019-05-26T04:47:32.305Z,12.07
2019-05-26T04:50:01.566Z,14.00
2019-05-26T04:52:30.854Z,12.10
2019-05-26T04:54:59.776Z,13.20
2019-05-26T04:57:28.618Z,12.03
2019-05-26T04:59:57.540Z,12.87
2019-05-26T05:02:26.560Z,13.17
2019-05-26T05:04:55.576Z,13.67
2019-05-26T05:07:28.057Z,13.73
2019-05-26T05:09:55.052Z,14.67
2019-05-26T05:12:23.967Z,14.17
2019-05-26T05:14:53.138Z,15.63
2019-05-26T05:17:21.974Z,15.53
2019-05-26T05:19:50.826Z,15.80
2019-05-26T05:22:20.027Z,19.70
2019-05-26T05:24:48.875Z,17.70
2019-05-26T05:27:17.859Z,17.70
2019-05-26T05:29:46.702Z,18.60
2019-05-26T05:32:15.682Z,16.10
2019-05-26T05:34:44.679Z,19.70
2019-05-26T05:37:13.514Z,17.23
2019-05-26T05:39:42.371Z,22.80
2019-05-26T05:42:11.609Z,17.90
2019-05-26T05:44:40.846Z,15.87
2019-05-26T05:47:09.754Z,17.33
2019-05-26T05:49:38.684Z,17.97
2019-05-26T05:52:07.584Z,18.67
2019-05-26T05:54:36.588Z,14.98
2019-05-26T05:57:05.819Z,16.07
2019-05-26T05:59:34.746Z,16.45
2019-05-26T06:02:03.734Z,16.32
2019-05-26T06:04:32.654Z,14.00
2019-05-26T06:07:02.059Z,13.20
2019-05-26T06:09:31.058Z,13.65
2019-05-26T06:11:59.904Z,12.82
2019-05-26T06:14:29.175Z,12.40
2019-05-26T06:16:58.762Z,11.50
2019-05-26T06:19:33.458Z,15.93
2019-05-26T06:22:02.453Z,11.78
2019-05-26T06:24:34.865Z,12.15
2019-05-26T06:27:04.032Z,11.90
2019-05-26T06:29:32.873Z,13.90
2019-05-26T06:32:02.315Z,11.38
2019-05-26T06:34:32.031Z,10.75
2019-05-26T06:37:00.880Z,11.48
2019-05-26T06:39:29.791Z,8.95
2019-05-26T06:41:58.694Z,12.30
2019-05-26T06:44:28.254Z,10.48
2019-05-26T06:46:57.169Z,10.30
2019-05-26T06:49:26.236Z,10.78
2019-05-26T06:51:55.219Z,10.68
2019-05-26T06:54:24.395Z,13.40
2019-05-26T06:56:53.387Z,9.78
2019-05-26T06:59:22.531Z,10.08
2019-05-26T07:01:51.716Z,8.98
2019-05-26T07:04:20.922Z,9.18
2019-05-26T07:06:49.783Z,9.00
2019-05-26T07:09:18.795Z,7.90
2019-05-26T07:11:57.085Z,10.30
2019-05-26T07:14:18.611Z,7.42
2019-05-26T07:16:47.770Z,13.30
2019-05-26T07:19:16.907Z,8.45
2019-05-26T07:21:46.162Z,8.25
2019-05-26T07:24:14.997Z,8.18
2019-05-26T07:26:43.839Z,7.50
2019-05-26T07:29:13.038Z,8.15
2019-05-26T07:31:41.906Z,7.80
2019-05-26T07:34:10.806Z,8.18
2019-05-26T07:36:39.911Z,8.43
2019-05-26T07:39:09.469Z,7.62
2019-05-26T07:41:38.387Z,7.05
2019-05-26T07:44:07.290Z,6.45
2019-05-26T07:46:36.223Z,7.90
2019-05-26T07:49:05.130Z,6.12
2019-05-26T07:51:34.375Z,7.03
2019-05-26T07:54:03.808Z,4.80
2019-05-26T07:56:32.944Z,5.60
2019-05-26T07:59:01.855Z,4.33
2019-05-26T08:01:36.177Z,5.37
2019-05-26T08:04:01.583Z,3.98
2019-05-26T08:06:30.510Z,4.78
2019-05-26T08:08:59.414Z,5.05
2019-05-26T08:11:28.264Z,4.20
2019-05-26T08:13:57.093Z,4.15
2019-05-26T08:16:26.100Z,3.75
2019-05-26T08:18:54.940Z,4.08
2019-05-26T08:21:23.852Z,4.65
2019-05-26T08:23:52.774Z,4.17
2019-05-26T08:26:21.618Z,4.65
2019-05-26T08:28:50.738Z,4.10
2019-05-26T08:31:19.906Z,5.00
2019-05-26T08:33:48.742Z,4.12
2019-05-26T08:36:17.683Z,4.53
2019-05-26T08:38:46.590Z,4.15
2019-05-26T08:41:15.533Z,5.08
2019-05-26T08:43:44.407Z,3.62
2019-05-26T08:46:13.495Z,4.95
2019-05-26T08:48:42.397Z,3.85
2019-05-26T08:51:11.666Z,3.70
2019-05-26T08:53:40.570Z,5.25
2019-05-26T08:56:09.826Z,3.70
2019-05-26T08:58:38.670Z,4.37
2019-05-26T09:01:07.865Z,7.58
2019-05-26T09:03:36.795Z,3.90
2019-05-26T09:06:05.819Z,3.83
2019-05-26T09:08:35.090Z,3.52
2019-05-26T09:11:04.083Z,3.90
2019-05-26T09:13:33.012Z,4.15
2019-05-26T09:16:02.204Z,3.95
2019-05-26T09:18:31.354Z,3.58
2019-05-26T09:21:00.671Z,3.77
2019-05-26T09:23:29.617Z,4.12
2019-05-26T09:25:58.527Z,4.97
2019-05-26T09:28:27.671Z,3.62
2019-05-26T09:30:56.618Z,3.45
2019-05-26T09:33:25.608Z,4.22
2019-05-26T09:35:54.602Z,3.65
2019-05-26T09:38:23.607Z,3.80
2019-05-26T09:40:52.595Z,3.40
2019-05-26T09:43:21.660Z,2.90
2019-05-26T09:45:50.948Z,3.20
2019-05-26T09:48:19.926Z,4.40
2019-05-26T09:50:48.770Z,2.98
2019-05-26T09:53:17.692Z,4.47
2019-05-26T09:55:46.644Z,2.87
2019-05-26T09:58:15.538Z,3.02
2019-05-26T10:00:44.862Z,3.83
2019-05-26T10:03:14.215Z,2.25
2019-05-26T10:05:43.486Z,3.05
2019-05-26T10:08:12.402Z,1.90
2019-05-26T10:10:41.399Z,5.95
2019-05-26T10:13:10.264Z,5.47
2019-05-26T10:15:39.259Z,3.42
2019-05-26T10:18:08.262Z,2.37
2019-05-26T10:20:37.112Z,2.12
2019-05-26T10:23:06.144Z,2.30
2019-05-26T10:25:35.050Z,2.70
2019-05-26T10:28:04.061Z,1.98
2019-05-26T10:30:33.293Z,2.35
2019-05-26T10:33:02.306Z,1.70
2019-05-26T10:35:31.570Z,3.70
2019-05-26T10:38:00.727Z,3.37
2019-05-26T10:40:29.970Z,2.92
2019-05-26T10:42:58.974Z,3.02
2019-05-26T10:45:28.294Z,3.00
2019-05-26T10:47:57.607Z,2.55
2019-05-26T10:50:26.610Z,2.80
2019-05-26T10:52:55.543Z,3.02
2019-05-26T10:55:24.732Z,2.22
2019-05-26T10:57:53.814Z,2.40
2019-05-26T11:00:22.925Z,2.00
2019-05-26T11:02:51.919Z,3.92
2019-05-26T11:05:20.917Z,2.52
2019-05-26T11:07:49.767Z,2.35
2019-05-26T11:10:18.770Z,4.00
2019-05-26T11:12:47.691Z,1.95
2019-05-26T11:15:17.390Z,2.30
2019-05-26T11:17:46.322Z,3.75
2019-05-26T11:20:16.095Z,3.50
2019-05-26T11:25:16.266Z,2.90
2019-05-26T11:27:45.178Z,2.20
2019-05-26T11:30:14.584Z,2.00
2019-05-26T11:32:43.627Z,2.90
2019-05-26T11:35:14.466Z,3.67
2019-05-26T11:37:43.381Z,6.25
2019-05-26T11:40:12.780Z,3.42
2019-05-26T11:42:44.638Z,2.75
2019-05-26T11:45:12.965Z,2.87
2019-05-26T11:47:41.948Z,2.55
2019-05-26T11:50:11.500Z,3.52
2019-05-26T11:52:40.448Z,3.67
2019-05-26T11:55:09.538Z,2.67
2019-05-26T11:57:38.671Z,2.02
2019-05-26T12:00:08.831Z,2.80
2019-05-26T12:02:38.739Z,2.62
2019-05-26T12:05:09.414Z,2.50
2019-05-26T12:07:38.396Z,3.00
2019-05-26T12:10:07.967Z,2.20
2019-05-26T12:12:36.903Z,2.02
2019-05-26T12:15:06.465Z,2.42
2019-05-26T12:17:35.631Z,3.22
2019-05-26T12:20:05.671Z,3.45
2019-05-26T12:22:35.359Z,2.02
2019-05-26T12:25:23.475Z,2.87
2019-05-26T12:27:52.556Z,1.72
2019-05-26T12:30:23.024Z,1.98
2019-05-26T12:32:51.949Z,2.27
2019-05-26T12:35:20.958Z,3.50
2019-05-26T12:37:49.809Z,2.47
2019-05-26T12:40:19.424Z,2.20
2019-05-26T12:42:48.431Z,2.20
2019-05-26T12:45:17.938Z,3.42
2019-05-26T12:47:46.940Z,2.40
2019-05-26T12:50:17.747Z,2.00
2019-05-26T12:52:47.001Z,2.02
2019-05-26T12:55:16.144Z,3.65
2019-05-26T12:57:45.459Z,2.17
2019-05-26T13:00:15.437Z,2.42
2019-05-26T13:02:44.382Z,1.82
2019-05-26T13:05:13.536Z,2.08
2019-05-26T13:07:42.377Z,2.25
2019-05-26T13:10:11.483Z,3.10
2019-05-26T13:12:40.594Z,3.08
2019-05-26T13:15:10.810Z,2.00
2019-05-26T13:17:39.811Z,2.15
2019-05-26T13:20:09.736Z,3.05
2019-05-26T13:22:39.923Z,3.72
2019-05-26T13:25:10.211Z,3.15
2019-05-26T13:27:39.443Z,2.98
2019-05-26T13:30:09.550Z,2.83
2019-05-26T13:32:38.769Z,2.20
2019-05-26T13:35:08.331Z,2.75
2019-05-26T13:37:37.650Z,4.65
2019-05-26T13:40:07.974Z,2.00
2019-05-26T13:42:38.016Z,2.10
2019-05-26T13:45:21.217Z,2.22
2019-05-26T13:47:38.339Z,2.17
2019-05-26T13:50:08.513Z,1.90
2019-05-26T13:52:37.739Z,3.17
2019-05-26T13:55:07.136Z,2.47
2019-05-26T13:57:36.503Z,2.77
2019-05-26T14:00:07.612Z,1.77
2019-05-26T14:02:36.963Z,2.52
2019-05-26T14:05:06.439Z,2.62
2019-05-26T14:07:35.443Z,1.62
2019-05-26T14:10:04.778Z,1.90
2019-05-26T14:12:33.788Z,2.67
2019-05-26T14:15:02.921Z,2.45
2019-05-26T14:17:33.714Z,2.72
2019-05-26T14:20:04.227Z,1.80
2019-05-26T14:22:33.201Z,1.87
2019-05-26T14:25:02.211Z,1.98
2019-05-26T14:27:31.258Z,1.40
2019-05-26T14:30:00.448Z,1.45
2019-05-26T14:32:29.530Z,1.80
2019-05-26T14:34:58.557Z,2.98
2019-05-26T14:37:27.503Z,2.02
2019-05-26T14:39:56.848Z,4.42
2019-05-26T14:42:25.746Z,2.22
2019-05-26T14:44:54.831Z,3.42
2019-05-26T14:47:23.942Z,3.42
2019-05-26T14:49:53.416Z,3.37
2019-05-26T14:52:22.795Z,1.90
2019-05-26T14:54:52.826Z,2.27
2019-05-26T14:57:21.800Z,3.90
2019-05-26T14:59:50.995Z,2.42
2019-05-26T15:02:20.056Z,2.47
2019-05-26T15:04:49.086Z,2.75
2019-05-26T15:07:18.147Z,4.55
2019-05-26T15:09:47.192Z,1.70
2019-05-26T15:12:16.616Z,3.27
2019-05-26T15:14:45.527Z,3.12
2019-05-26T15:17:14.534Z,1.85
2019-05-26T15:19:43.530Z,2.40
2019-05-26T15:22:12.539Z,1.90
2019-05-26T15:24:41.679Z,1.50
2019-05-26T15:27:10.956Z,1.87
2019-05-26T15:29:39.882Z,2.98
2019-05-26T15:32:09.136Z,1.82
2019-05-26T15:34:38.121Z,2.17
2019-05-26T15:37:07.111Z,1.75
2019-05-26T15:39:35.955Z,2.72
2019-05-26T15:42:08.230Z,1.82
2019-05-26T15:44:36.089Z,3.35
2019-05-26T15:47:05.263Z,1.92
2019-05-26T15:49:34.172Z,3.00
2019-05-26T15:52:03.122Z,3.15
2019-05-26T15:54:31.977Z,3.35
2019-05-26T15:57:01.207Z,1.85
2019-05-26T15:59:30.241Z,4.05
2019-05-26T16:01:59.514Z,2.30
2019-05-26T16:04:28.702Z,2.75
2019-05-26T16:06:58.104Z,4.37
2019-05-26T16:09:27.030Z,2.05
2019-05-26T16:11:56.335Z,2.10
2019-05-26T16:14:25.331Z,2.35
2019-05-26T16:16:54.478Z,1.82
2019-05-26T16:19:23.490Z,1.75
2019-05-26T16:21:52.403Z,1.95
2019-05-26T16:24:21.312Z,2.47
2019-05-26T16:26:50.309Z,2.85
2019-05-26T16:29:19.171Z,1.57
2019-05-26T16:31:48.259Z,2.98
2019-05-26T16:34:17.343Z,2.00
2019-05-26T16:36:46.338Z,2.30
2019-05-26T16:39:15.569Z,2.08
2019-05-26T16:41:44.406Z,2.30
2019-05-26T16:44:13.342Z,2.12
2019-05-26T16:46:55.379Z,2.87
2019-05-26T16:49:13.347Z,2.00
2019-05-26T16:51:42.266Z,1.70
2019-05-26T16:54:11.119Z,2.12
2019-05-26T16:56:40.040Z,1.92
2019-05-26T16:59:09.004Z,2.37
2019-05-26T17:01:37.853Z,2.00
2019-05-26T17:04:06.928Z,1.92
2019-05-26T17:06:35.762Z,2.08
2019-05-26T17:09:07.043Z,3.12
2019-05-26T17:11:36.032Z,1.87
2019-05-26T17:14:05.187Z,2.22
2019-05-26T17:16:34.166Z,3.87
2019-05-26T17:19:18.491Z,2.98
2019-05-26T17:21:47.830Z,1.92
2019-05-26T17:24:16.867Z,1.75
2019-05-26T17:26:45.859Z,2.30
2019-05-26T17:29:14.788Z,3.58
2019-05-26T17:31:43.694Z,2.20
2019-05-26T17:34:12.794Z,2.75
2019-05-26T17:36:41.748Z,3.52
2019-05-26T17:39:10.807Z,2.52
2019-05-26T17:41:39.966Z,2.83
2019-05-26T17:44:08.885Z,1.65
2019-05-26T17:46:38.291Z,2.10
2019-05-26T17:49:07.514Z,3.90
2019-05-26T17:51:36.511Z,2.40
2019-05-26T17:54:05.615Z,2.65
2019-05-26T17:56:34.874Z,2.00
2019-05-26T17:59:03.999Z,2.47
2019-05-26T18:01:32.995Z,4.28
2019-05-26T18:04:01.918Z,3.85
2019-05-26T18:06:30.827Z,4.25
2019-05-26T18:08:59.817Z,2.42
2019-05-26T18:11:28.850Z,2.58
2019-05-26T18:13:57.722Z,4.22
2019-05-26T18:16:26.641Z,2.98
2019-05-26T18:18:55.570Z,2.58
2019-05-26T18:21:24.471Z,2.15
2019-05-26T18:23:53.313Z,2.92
2019-05-26T18:26:22.332Z,2.42
2019-05-26T18:28:51.284Z,2.10
2019-05-26T18:31:20.187Z,2.08
2019-05-26T18:33:49.031Z,2.25
2019-05-26T18:36:18.506Z,2.22
2019-05-26T18:38:47.424Z,2.83
2019-05-26T18:41:16.338Z,2.83
2019-05-26T18:43:45.246Z,4.97
2019-05-26T18:46:14.269Z,2.65
2019-05-26T18:48:43.477Z,2.40
2019-05-26T18:51:12.698Z,3.90
2019-05-26T18:53:41.614Z,2.65
2019-05-26T18:56:10.602Z,4.60
2019-05-26T18:58:39.518Z,2.60
2019-05-26T19:01:08.673Z,4.92
2019-05-26T19:03:37.572Z,2.70
2019-05-26T19:06:06.563Z,4.15
2019-05-26T19:08:35.542Z,2.75
2019-05-26T19:11:04.555Z,3.20
2019-05-26T19:13:33.386Z,3.22
2019-05-26T19:16:02.295Z,3.30
2019-05-26T19:18:31.194Z,4.28
2019-05-26T19:21:00.352Z,4.12
2019-05-26T19:23:29.267Z,3.60
2019-05-26T19:25:58.101Z,3.37
2019-05-26T19:28:27.342Z,2.70
2019-05-26T19:30:56.554Z,3.35
2019-05-26T19:33:25.975Z,2.58
2019-05-26T19:35:55.158Z,5.08
2019-05-26T19:38:24.011Z,4.20
2019-05-26T19:40:53.181Z,2.92
2019-05-26T19:43:22.241Z,3.35
2019-05-26T19:45:51.092Z,3.58
2019-05-26T19:48:35.035Z,3.95
2019-05-26T19:50:50.982Z,4.17
2019-05-26T19:53:20.133Z,3.50
2019-05-26T19:55:49.226Z,3.72
2019-05-26T19:58:18.237Z,47.60
2019-05-26T20:00:47.231Z,7.12
2019-05-26T20:03:16.156Z,5.33
2019-05-26T20:05:45.347Z,4.60
2019-05-26T20:08:14.250Z,4.50
2019-05-26T20:10:43.239Z,5.00
2019-05-26T20:13:12.230Z,7.03
2019-05-26T20:15:41.661Z,5.75
2019-05-26T20:18:10.650Z,4.90
2019-05-26T20:20:39.558Z,5.05
2019-05-26T20:23:08.538Z,5.33
2019-05-26T20:25:37.456Z,7.25
2019-05-26T20:28:06.746Z,4.33
2019-05-26T20:30:35.598Z,4.65
2019-05-26T20:33:04.578Z,4.75
2019-05-26T20:35:33.419Z,4.72
2019-05-26T20:38:02.335Z,4.67
2019-05-26T20:40:31.340Z,5.28
2019-05-26T20:43:19.393Z,7.85
2019-05-26T20:45:51.698Z,5.47
2019-05-26T20:48:20.910Z,5.62
2019-05-26T20:50:49.835Z,5.80
2019-05-26T20:53:18.751Z,5.42
2019-05-26T20:55:47.828Z,6.10
2019-05-26T20:58:16.762Z,6.08
2019-05-26T21:00:45.681Z,6.45
2019-05-26T21:03:14.594Z,7.97
2019-05-26T21:05:43.503Z,6.72
2019-05-26T21:08:12.364Z,6.20
2019-05-26T21:10:41.273Z,7.60
2019-05-26T21:13:10.202Z,6.37
2019-05-26T21:15:39.044Z,5.78
2019-05-26T21:18:08.010Z,5.35
2019-05-26T21:20:37.218Z,6.08
2019-05-26T21:23:06.418Z,6.47
2019-05-26T21:25:35.558Z,6.92
2019-05-26T21:28:05.323Z,6.85
2019-05-26T21:30:34.462Z,7.03
2019-05-26T21:33:03.943Z,5.20
2019-05-26T21:35:32.854Z,5.97
2019-05-26T21:38:01.705Z,6.00
2019-05-26T21:40:30.912Z,5.63
2019-05-26T21:42:59.742Z,5.17
2019-05-26T21:45:28.732Z,8.33
2019-05-26T21:47:58.138Z,7.90
2019-05-26T21:50:27.063Z,5.05
2019-05-26T21:52:56.221Z,5.70
2019-05-26T21:55:25.134Z,5.83
2019-05-26T21:57:54.002Z,5.90
2019-05-26T22:00:27.083Z,6.17
2019-05-26T22:02:56.164Z,8.88
2019-05-26T22:05:25.762Z,6.20
2019-05-26T22:07:54.690Z,5.93
2019-05-26T22:10:23.665Z,6.37
2019-05-26T22:12:52.511Z,6.53
2019-05-26T22:15:21.499Z,7.37
2019-05-26T22:17:50.347Z,6.57
2019-05-26T22:20:19.765Z,6.85
2019-05-26T22:22:48.680Z,6.20
2019-05-26T22:25:17.657Z,7.30
2019-05-26T22:27:46.584Z,7.97
2019-05-26T22:30:16.002Z,6.53
2019-05-26T22:32:45.012Z,6.83
2019-05-26T22:35:14.139Z,8.53
2019-05-26T22:37:43.167Z,7.70
2019-05-26T22:40:12.262Z,8.97
2019-05-26T22:42:41.180Z,7.67
2019-05-26T22:45:10.754Z,13.17
2019-05-26T22:47:39.759Z,8.77
2019-05-26T22:50:09.990Z,7.73
2019-05-26T22:52:39.050Z,8.20
2019-05-26T22:55:08.733Z,8.63
2019-05-26T22:57:37.706Z,8.23
2019-05-26T23:00:08.525Z,8.13
2019-05-26T23:02:37.427Z,8.17
2019-05-26T23:05:07.171Z,7.50
2019-05-26T23:07:36.117Z,7.77
2019-05-26T23:10:07.286Z,8.13
2019-05-26T23:12:36.222Z,7.87
2019-05-26T23:15:05.909Z,8.67
2019-05-26T23:17:35.174Z,7.47
2019-05-26T23:20:23.690Z,9.37
2019-05-26T23:22:53.182Z,10.40
2019-05-26T23:25:22.110Z,8.23
2019-05-26T23:27:51.254Z,7.97
2019-05-26T23:30:23.530Z,7.00
2019-05-26T23:32:52.831Z,10.03
2019-05-26T23:35:22.749Z,8.10
2019-05-26T23:37:52.169Z,12.53
2019-05-26T23:40:21.169Z,8.23
2019-05-26T23:42:50.284Z,8.20
2019-05-26T23:45:20.478Z,8.93
2019-05-26T23:47:49.628Z,8.97
2019-05-26T23:50:18.738Z,8.37
2019-05-26T23:52:47.757Z,12.90
2019-05-26T23:55:16.823Z,10.33
2019-05-26T23:57:45.869Z,12.73
